Time;durP1;ratioP1;P1;durP2;ratioP2;P2;SDS_P1;SDS_P2;PMS_P1;PMS_P2;Temp;Humidity;BMP_temperature;BMP_pressure;BME280_temperature;BME280_humidity;BME280_pressure;Samples;Min_cycle;Max_cycle;Signal;HPM_P1;HPM_P2
2023/06/28 00:01:05;;;;;;;0.00;0.00;;;;;;;19.44;53.68;100699.25;5067561;28;20040;-79
2023/06/28 00:03:31;;;;;;;0.10;0.10;;;;;;;19.46;53.86;100703.38;5071209;28;20021;-80
2023/06/28 00:05:56;;;;;;;0.10;0.10;;;;;;;19.49;53.72;100702.16;5068993;28;20032;-81
2023/06/28 00:08:22;;;;;;;0.10;0.10;;;;;;;19.53;52.75;100696.16;5072712;28;20056;-79
2023/06/28 00:10:49;;;;;;;0.10;0.10;;;;;;;19.56;52.23;100700.28;5074126;28;20078;-80
2023/06/28 00:13:14;;;;;;;0.10;0.10;;;;;;;19.52;53.07;100697.22;5074315;28;20025;-79
2023/06/28 00:15:39;;;;;;;0.10;0.10;;;;;;;19.51;52.42;100702.78;5074604;28;20029;-77
2023/06/28 00:18:04;;;;;;;0.10;0.10;;;;;;;19.52;52.32;100702.56;5074736;28;20287;-81
2023/06/28 00:20:30;;;;;;;0.10;0.10;;;;;;;19.55;52.24;100701.34;5069352;28;20128;-79
2023/06/28 00:22:55;;;;;;;0.10;0.10;;;;;;;19.53;51.93;100701.53;5068271;28;20032;-80
2023/06/28 00:25:21;;;;;;;0.10;0.10;;;;;;;19.53;51.78;100706.06;5074855;28;20025;-80
2023/06/28 00:27:46;;;;;;;0.10;0.10;;;;;;;19.45;52.32;100714.31;5075335;28;20048;-80
2023/06/28 00:30:12;;;;;;;0.10;0.10;;;;;;;19.28;53.11;100714.72;5074263;28;20060;-80
2023/06/28 00:32:38;;;;;;;0.10;0.10;;;;;;;19.17;52.70;100712.66;5074522;28;20036;-81
2023/06/28 00:35:04;;;;;;;0.10;0.10;;;;;;;19.12;52.51;100712.44;5074550;28;20040;-80
2023/06/28 00:37:30;;;;;;;0.10;0.10;;;;;;;19.09;52.87;100712.81;5069680;28;20036;-81
2023/06/28 00:39:55;;;;;;;0.10;0.10;;;;;;;19.10;52.76;100718.00;5073942;28;20108;-80
2023/06/28 00:42:21;;;;;;;0.10;0.10;;;;;;;19.16;52.96;100719.03;5072890;28;20601;-80
2023/06/28 00:44:46;;;;;;;0.10;0.10;;;;;;;19.24;52.57;100704.63;5071495;28;20032;-81
2023/06/28 00:47:13;;;;;;;0.10;0.10;;;;;;;19.28;54.32;100709.38;5071887;28;20028;-78
2023/06/28 00:49:39;;;;;;;0.10;0.10;;;;;;;19.27;55.29;100709.56;5072630;28;20502;-79
2023/06/28 00:52:05;;;;;;;0.10;0.10;;;;;;;19.21;56.30;100708.53;5071873;28;20036;-78
2023/06/28 00:54:31;;;;;;;0.10;0.10;;;;;;;19.16;55.15;100705.63;5072744;28;20170;-78
2023/06/28 00:56:57;;;;;;;0.10;0.10;;;;;;;19.18;54.74;100708.91;5072470;28;20036;-79
2023/06/28 00:59:22;;;;;;;0.10;0.10;;;;;;;19.17;55.62;100701.91;5071677;28;20037;-79
2023/06/28 01:01:49;;;;;;;0.10;0.10;;;;;;;19.14;56.31;100705.03;5071962;28;20445;-78
2023/06/28 01:04:15;;;;;;;0.10;0.10;;;;;;;19.10;56.10;100701.09;5070549;28;20033;-79
2023/06/28 01:06:48;;;;;;;0.10;0.10;;;;;;;19.08;56.12;100706.63;5069464;28;20062;-79
2023/06/28 01:09:14;;;;;;;0.10;0.10;;;;;;;19.06;56.00;100716.72;5070340;28;20040;-78
2023/06/28 01:11:40;;;;;;;0.10;0.10;;;;;;;19.08;55.80;100719.22;5071439;28;20029;-78
2023/06/28 01:14:06;;;;;;;0.10;0.10;;;;;;;19.13;55.22;100723.97;5069495;28;20378;-80
2023/06/28 01:16:33;;;;;;;0.10;0.10;;;;;;;19.16;54.76;100726.25;5069670;28;20052;-81
2023/06/28 01:18:59;;;;;;;0.10;0.10;;;;;;;19.15;54.28;100720.06;5072143;28;20035;-81
2023/06/28 01:21:30;;;;;;;0.10;0.10;;;;;;;19.17;53.86;100726.06;5070965;28;20029;-80
2023/06/28 01:23:55;;;;;;;0.10;0.10;;;;;;;19.19;54.14;100718.63;5072788;28;20059;-79
2023/06/28 01:26:21;;;;;;;0.10;0.10;;;;;;;19.18;54.84;100725.00;5073055;28;20032;-82
2023/06/28 01:28:47;;;;;;;0.10;0.10;;;;;;;19.08;55.76;100720.03;5072044;28;20056;-79
2023/06/28 01:31:12;;;;;;;0.10;0.10;;;;;;;19.05;55.26;100715.09;5073048;28;20097;-81
2023/06/28 01:33:42;;;;;;;0.10;0.10;;;;;;;19.06;55.03;100726.63;5072245;28;20044;-79
2023/06/28 01:36:09;;;;;;;0.10;0.10;;;;;;;19.09;55.07;100721.72;5071543;28;20035;-79
2023/06/28 01:38:36;;;;;;;0.10;0.10;;;;;;;19.12;55.47;100728.53;5064594;28;20029;-79
2023/06/28 01:41:03;;;;;;;0.10;0.10;;;;;;;19.08;56.55;100725.41;5071750;28;20056;-79
2023/06/28 01:43:28;;;;;;;0.10;0.10;;;;;;;19.06;55.80;100722.09;5071122;28;20044;-80
2023/06/28 01:45:54;;;;;;;0.10;0.10;;;;;;;19.08;55.58;100719.22;5072881;28;20494;-82
2023/06/28 01:48:19;;;;;;;0.10;0.10;;;;;;;19.04;55.91;100717.97;5072915;28;20040;-80
2023/06/28 01:50:45;;;;;;;0.10;0.10;;;;;;;18.99;56.11;100723.94;5073137;28;20058;-80
2023/06/28 01:53:10;;;;;;;0.10;0.10;;;;;;;18.98;55.70;100718.78;5072266;28;20029;-80
2023/06/28 01:55:36;;;;;;;0.10;0.10;;;;;;;18.98;55.97;100724.16;5071386;28;20043;-80
2023/06/28 01:58:01;;;;;;;0.10;0.10;;;;;;;18.98;55.67;100719.63;5072787;28;20097;-80
2023/06/28 02:00:26;;;;;;;0.10;0.10;;;;;;;19.02;55.61;100714.66;5070031;28;20048;-80
2023/06/28 02:02:53;;;;;;;0.10;0.10;;;;;;;19.01;55.53;100718.38;5072309;28;20048;-80
2023/06/28 02:05:21;;;;;;;0.08;0.08;;;;;;;19.00;55.61;100720.25;5072000;28;20033;-80
2023/06/28 02:07:47;;;;;;;0.10;0.10;;;;;;;18.99;55.67;100715.88;5071100;28;20107;-81
2023/06/28 02:10:12;;;;;;;0.10;0.10;;;;;;;18.98;56.41;100713.44;5072069;28;20063;-78
2023/06/28 02:12:38;;;;;;;0.10;0.10;;;;;;;18.96;56.44;100715.50;5070853;28;20497;-81
2023/06/28 02:15:04;;;;;;;0.10;0.10;;;;;;;18.93;56.63;100711.34;5071271;28;20086;-80
2023/06/28 02:17:30;;;;;;;0.10;0.10;;;;;;;18.92;57.49;100707.00;5070277;28;20048;-80
2023/06/28 02:19:56;;;;;;;0.10;0.10;;;;;;;18.87;57.87;100707.63;5073019;28;20052;-79
2023/06/28 02:22:21;;;;;;;0.10;0.10;;;;;;;18.88;57.19;100703.94;5071865;28;20044;-81
2023/06/28 02:24:47;;;;;;;0.00;0.00;;;;;;;18.93;56.72;100697.16;5065208;28;20063;-79
2023/06/28 02:27:12;;;;;;;0.10;0.10;;;;;;;19.00;56.34;100700.66;5062817;28;20028;-80
2023/06/28 02:29:37;;;;;;;0.10;0.10;;;;;;;19.02;56.06;100701.25;5071607;28;20486;-81
2023/06/28 02:32:03;;;;;;;0.10;0.10;;;;;;;19.02;56.69;100706.63;5069183;28;20424;-81
2023/06/28 02:34:29;;;;;;;0.10;0.10;;;;;;;18.97;56.90;100701.88;5069409;28;20048;-80
2023/06/28 02:36:55;;;;;;;0.10;0.10;;;;;;;18.95;56.77;100697.75;5067323;28;20641;-80
2023/06/28 02:39:21;;;;;;;0.10;0.10;;;;;;;18.89;57.21;100696.72;5069370;28;20125;-81
2023/06/28 02:41:46;;;;;;;0.10;0.10;;;;;;;18.84;57.42;100697.31;5070819;28;20052;-81
2023/06/28 02:44:11;;;;;;;0.10;0.10;;;;;;;18.80;57.84;100711.31;5068592;28;20492;-81
2023/06/28 02:46:37;;;;;;;0.10;0.10;;;;;;;18.76;57.94;100715.38;5071836;28;20115;-80
2023/06/28 02:49:02;;;;;;;0.10;0.10;;;;;;;18.74;57.62;100715.59;5071248;28;20048;-81
2023/06/28 02:51:27;;;;;;;0.10;0.10;;;;;;;18.76;57.81;100712.69;5071832;28;20869;-79
2023/06/28 02:53:53;;;;;;;0.10;0.10;;;;;;;18.76;57.52;100713.59;5070588;28;20032;-79
2023/06/28 02:56:18;;;;;;;0.10;0.10;;;;;;;18.76;57.64;100705.53;5071362;28;20039;-80
2023/06/28 02:58:43;;;;;;;0.10;0.10;;;;;;;18.76;57.68;100716.25;5071620;28;20037;-81
2023/06/28 03:01:09;;;;;;;0.00;0.00;;;;;;;18.77;57.22;100712.53;5071664;28;20515;-81
2023/06/28 03:03:36;;;;;;;0.10;0.10;;;;;;;18.80;58.63;100712.13;5074140;28;20625;-81
2023/06/28 03:06:01;;;;;;;0.10;0.10;;;;;;;18.80;57.49;100716.66;5074751;28;20116;-81
2023/06/28 03:08:28;;;;;;;0.00;0.00;;;;;;;18.78;57.50;100724.94;5075115;28;20529;-80
2023/06/28 03:10:53;;;;;;;0.10;0.10;;;;;;;18.75;57.52;100724.47;5075077;28;20078;-80
2023/06/28 03:13:18;;;;;;;0.10;0.10;;;;;;;18.74;57.45;100729.00;5074983;28;20417;-80
2023/06/28 03:15:43;;;;;;;0.10;0.10;;;;;;;18.75;57.88;100717.25;5076038;28;20036;-81
2023/06/28 03:18:09;;;;;;;0.10;0.10;;;;;;;18.74;58.14;100726.31;5074511;28;20283;-81
2023/06/28 03:20:34;;;;;;;0.10;0.10;;;;;;;18.76;57.64;100731.44;5074349;28;20779;-80
2023/06/28 03:23:01;;;;;;;0.10;0.10;;;;;;;18.79;57.45;100726.56;5075542;28;20267;-80
2023/06/28 03:25:27;;;;;;;0.10;0.10;;;;;;;18.81;57.80;100726.38;5075717;28;20039;-80
2023/06/28 03:27:52;;;;;;;0.08;0.08;;;;;;;18.82;57.53;100725.34;5074958;28;20029;-80
2023/06/28 03:30:18;;;;;;;0.10;0.10;;;;;;;18.83;57.65;100726.97;5073503;28;20051;-80
2023/06/28 03:32:43;;;;;;;0.10;0.10;;;;;;;18.78;57.71;100724.94;5074688;28;20086;-80
2023/06/28 03:35:08;;;;;;;0.10;0.10;;;;;;;18.72;58.25;100724.88;5074688;28;20037;-81
2023/06/28 03:37:34;;;;;;;0.10;0.10;;;;;;;18.68;58.86;100730.59;5064083;28;20033;-81
2023/06/28 03:39:59;;;;;;;0.10;0.10;;;;;;;18.64;59.08;100732.06;5075035;28;20044;-81
2023/06/28 03:42:25;;;;;;;0.10;0.10;;;;;;;18.65;59.18;100727.50;5073277;28;20041;-81
2023/06/28 03:44:50;;;;;;;0.10;0.10;;;;;;;18.65;59.25;100730.19;5076734;28;20041;-80
2023/06/28 03:47:15;;;;;;;0.00;0.00;;;;;;;18.63;59.49;100730.38;5075838;28;20112;-81
2023/06/28 03:49:41;;;;;;;0.10;0.10;;;;;;;18.65;59.60;100738.22;5075160;28;20111;-81
2023/06/28 03:52:07;;;;;;;0.10;0.10;;;;;;;18.64;59.76;100733.91;5075731;28;20025;-83
2023/06/28 03:54:32;;;;;;;0.10;0.10;;;;;;;18.65;59.67;100724.84;5076706;28;20031;-83
2023/06/28 03:56:58;;;;;;;0.10;0.10;;;;;;;18.70;59.29;100737.63;5076979;28;20056;-82
2023/06/28 03:59:23;;;;;;;0.10;0.10;;;;;;;18.73;59.23;100724.66;5077491;28;20124;-81
2023/06/28 04:01:49;;;;;;;0.10;0.10;;;;;;;18.76;59.41;100731.44;5076699;28;20039;-82
2023/06/28 04:04:14;;;;;;;0.10;0.10;;;;;;;18.78;59.01;100726.75;5075194;28;20206;-83
2023/06/28 04:06:40;;;;;;;0.10;0.10;;;;;;;18.81;58.92;100729.06;5076112;28;20393;-78
2023/06/28 04:09:05;;;;;;;0.10;0.10;;;;;;;18.81;58.92;100729.88;5073506;28;20086;-82
2023/06/28 04:11:30;;;;;;;0.08;0.08;;;;;;;18.84;59.38;100725.97;5074571;28;20037;-79
2023/06/28 04:13:56;;;;;;;0.10;0.10;;;;;;;18.86;59.43;100735.44;5072526;28;20032;-80
2023/06/28 04:16:21;;;;;;;0.10;0.10;;;;;;;18.90;58.68;100727.81;5070355;28;20426;-81
2023/06/28 04:18:46;;;;;;;0.10;0.10;;;;;;;18.95;58.21;100736.09;5074102;28;20540;-79
2023/06/28 04:21:13;;;;;;;0.10;0.10;;;;;;;19.00;57.76;100743.53;5075265;28;20064;-81
2023/06/28 04:23:39;;;;;;;0.10;0.10;;;;;;;19.05;57.39;100739.22;5075521;28;20046;-79
2023/06/28 04:26:04;;;;;;;0.10;0.10;;;;;;;19.05;58.38;100736.53;5074755;28;20032;-81
2023/06/28 04:28:29;;;;;;;0.10;0.10;;;;;;;19.08;57.83;100733.44;5073530;28;20063;-79
2023/06/28 04:30:54;;;;;;;0.05;0.05;;;;;;;19.13;57.46;100742.75;5073573;28;20028;-80
2023/06/28 04:33:22;;;;;;;0.10;0.10;;;;;;;19.16;57.26;100736.97;5072894;28;20040;-79
2023/06/28 04:35:48;;;;;;;0.10;0.10;;;;;;;19.20;57.12;100748.94;5075330;28;20298;-80
2023/06/28 04:38:14;;;;;;;0.10;0.10;;;;;;;19.21;57.10;100743.38;5074074;28;20029;-79
2023/06/28 04:40:39;;;;;;;0.10;0.10;;;;;;;19.24;57.10;100745.66;5074921;28;20044;-80
2023/06/28 04:43:10;;;;;;;0.00;0.00;;;;;;;19.29;56.97;100748.53;5074917;28;20028;-82
2023/06/28 04:45:36;;;;;;;0.00;0.00;;;;;;;19.31;56.83;100745.66;5067318;28;20020;-82
2023/06/28 04:48:05;;;;;;;0.00;0.00;;;;;;;19.35;56.54;100736.16;5074888;28;20067;-79
2023/06/28 04:50:32;;;;;;;0.10;0.10;;;;;;;19.41;56.42;100743.41;5072905;28;20039;-80
2023/06/28 04:52:57;;;;;;;0.10;0.10;;;;;;;19.42;57.14;100753.09;5073999;28;20063;-82
2023/06/28 04:55:22;;;;;;;0.10;0.10;;;;;;;19.41;57.27;100747.94;5072843;28;20033;-80
2023/06/28 04:57:48;;;;;;;0.00;0.00;;;;;;;19.45;57.61;100749.16;5069130;28;20033;-79
2023/06/28 05:00:14;;;;;;;0.10;0.10;;;;;;;19.40;58.44;100754.31;5071306;28;20824;-82
2023/06/28 05:02:39;;;;;;;0.03;0.03;;;;;;;19.31;58.78;100751.84;5074174;28;20505;-78
2023/06/28 05:05:05;;;;;;;0.10;0.10;;;;;;;19.34;58.55;100744.44;5074432;28;20120;-79
2023/06/28 05:07:30;;;;;;;0.10;0.10;;;;;;;19.39;58.23;100741.97;5074163;28;20025;-79
2023/06/28 05:09:55;;;;;;;0.10;0.10;;;;;;;19.41;58.44;100739.91;5075259;28;20032;-79
2023/06/28 05:12:21;;;;;;;0.10;0.10;;;;;;;19.42;58.37;100741.53;5072386;28;20037;-79
2023/06/28 05:14:48;;;;;;;0.10;0.10;;;;;;;19.39;58.30;100736.59;5074566;28;20165;-80
2023/06/28 05:17:14;;;;;;;0.10;0.10;;;;;;;19.37;58.98;100744.84;5074737;28;20267;-79
2023/06/28 05:19:39;;;;;;;0.10;0.10;;;;;;;19.39;58.14;100750.00;5075984;28;20036;-80
2023/06/28 05:22:04;;;;;;;0.07;0.07;;;;;;;19.31;58.30;100751.03;5077549;28;20033;-81
2023/06/28 05:24:30;;;;;;;0.10;0.10;;;;;;;19.25;57.33;100746.47;5076399;28;20291;-82
2023/06/28 05:26:55;;;;;;;0.10;0.10;;;;;;;19.16;57.53;100743.16;5077737;28;20035;-83
2023/06/28 05:29:20;;;;;;;0.10;0.10;;;;;;;19.19;57.53;100745.44;5075996;28;20033;-80
2023/06/28 05:31:45;;;;;;;0.10;0.10;;;;;;;19.19;57.73;100740.09;5075403;28;20283;-81
2023/06/28 05:34:13;;;;;;;0.07;0.07;;;;;;;19.33;57.05;100748.13;5073517;28;20101;-80
2023/06/28 05:36:39;;;;;;;0.10;0.10;;;;;;;19.45;57.42;100741.97;5067352;28;20290;-80
2023/06/28 05:39:05;;;;;;;0.10;0.10;;;;;;;19.51;58.29;100741.13;5070331;28;20051;-80
2023/06/28 05:41:30;;;;;;;0.10;0.10;;;;;;;19.56;57.13;100745.06;5073940;28;20041;-80
2023/06/28 05:43:55;;;;;;;0.10;0.10;;;;;;;19.59;57.32;100739.28;5074095;28;20428;-80
2023/06/28 05:46:21;;;;;;;0.10;0.10;;;;;;;19.59;57.44;100736.59;5074650;28;20642;-82
2023/06/28 05:48:46;;;;;;;0.10;0.10;;;;;;;19.59;57.62;100744.66;5074476;28;20028;-79
2023/06/28 05:51:14;;;;;;;0.10;0.10;;;;;;;19.55;57.40;100741.56;5072144;28;20109;-81
2023/06/28 05:53:40;;;;;;;0.00;0.00;;;;;;;19.51;57.47;100748.38;5074439;28;20024;-81
2023/06/28 05:56:06;;;;;;;0.03;0.03;;;;;;;19.52;57.35;100750.00;5072912;28;20020;-80
2023/06/28 05:58:32;;;;;;;0.00;0.00;;;;;;;19.56;58.77;100747.75;5073884;28;20036;-80
2023/06/28 06:00:57;;;;;;;0.10;0.10;;;;;;;19.55;57.44;100751.47;5074172;28;20095;-81
2023/06/28 06:03:23;;;;;;;0.10;0.10;;;;;;;19.63;57.29;100748.59;5074665;28;20041;-83
2023/06/28 06:05:48;;;;;;;0.10;0.10;;;;;;;19.73;57.62;100749.00;5070542;28;20383;-82
2023/06/28 06:08:14;;;;;;;0.10;0.10;;;;;;;19.71;56.92;100749.25;5065536;28;20033;-80
2023/06/28 06:10:39;;;;;;;0.00;0.00;;;;;;;19.81;56.95;100753.38;5074697;28;20025;-80
2023/06/28 06:13:04;;;;;;;0.00;0.00;;;;;;;19.84;56.77;100748.41;5071463;28;20359;-79
2023/06/28 06:15:29;;;;;;;0.10;0.10;;;;;;;19.89;57.10;100748.59;5071172;28;20460;-81
2023/06/28 06:17:55;;;;;;;0.00;0.00;;;;;;;19.91;56.63;100751.09;5073862;28;20055;-82
2023/06/28 06:20:20;;;;;;;0.10;0.10;;;;;;;19.93;56.24;100754.41;5072445;28;20032;-79
2023/06/28 06:22:45;;;;;;;0.10;0.10;;;;;;;20.02;55.81;100750.47;5071265;28;20092;-82
2023/06/28 06:25:11;;;;;;;0.10;0.10;;;;;;;20.04;55.60;100756.44;5067353;28;20070;-80
2023/06/28 06:27:37;;;;;;;0.10;0.10;;;;;;;20.09;55.68;100759.34;5072142;28;20101;-79
2023/06/28 06:30:03;;;;;;;0.00;0.00;;;;;;;20.13;55.65;100763.22;5070965;28;20414;-80
2023/06/28 06:32:28;;;;;;;0.10;0.10;;;;;;;20.18;55.54;100756.41;5067496;28;20494;-80
2023/06/28 06:34:57;;;;;;;0.00;0.00;;;;;;;20.23;57.69;100757.44;5066816;28;20127;-79
2023/06/28 06:37:23;;;;;;;0.10;0.10;;;;;;;20.30;55.29;100760.09;5068054;28;20122;-79
2023/06/28 06:39:49;;;;;;;0.10;0.10;;;;;;;20.33;55.06;100759.69;5069838;28;20037;-78
2023/06/28 06:42:15;;;;;;;0.10;0.10;;;;;;;20.40;54.72;100760.47;5073652;28;20060;-80
2023/06/28 06:44:40;;;;;;;0.10;0.10;;;;;;;20.38;54.16;100767.94;5074080;28;20028;-77
2023/06/28 06:47:06;;;;;;;0.10;0.10;;;;;;;20.25;53.32;100762.59;5070997;28;20538;-80
2023/06/28 06:49:31;;;;;;;0.00;0.00;;;;;;;20.35;54.22;100769.19;5071698;28;20036;-80
2023/06/28 06:51:57;;;;;;;0.10;0.10;;;;;;;20.30;53.86;100771.66;5074680;28;20032;-79
2023/06/28 06:54:22;;;;;;;0.10;0.10;;;;;;;20.32;53.90;100769.59;5076808;28;20132;-78
2023/06/28 06:56:47;;;;;;;0.10;0.10;;;;;;;20.41;53.46;100772.91;5078515;28;20510;-78
2023/06/28 06:59:15;;;;;;;0.00;0.00;;;;;;;20.48;53.23;100772.88;5079794;28;20509;-78
2023/06/28 07:01:40;;;;;;;0.00;0.00;;;;;;;20.57;53.04;100767.09;5060400;28;20036;-76
2023/06/28 07:04:05;;;;;;;0.10;0.10;;;;;;;20.61;52.62;100772.84;5074128;28;20028;-77
2023/06/28 07:06:31;;;;;;;0.10;0.10;;;;;;;20.84;53.04;100772.38;5076177;28;20119;-79
2023/06/28 07:08:57;;;;;;;0.10;0.10;;;;;;;21.06;53.12;100769.38;5077611;28;20491;-78
2023/06/28 07:11:22;;;;;;;0.10;0.10;;;;;;;21.18;51.97;100770.31;5077443;28;20063;-78
2023/06/28 07:13:48;;;;;;;0.00;0.00;;;;;;;21.19;51.61;100772.81;5077230;28;20090;-77
2023/06/28 07:16:13;;;;;;;0.10;0.10;;;;;;;21.35;51.65;100776.84;5077084;28;20110;-77
2023/06/28 07:18:39;;;;;;;0.03;0.03;;;;;;;21.50;51.72;100771.19;5078712;28;20029;-77
2023/06/28 07:21:05;;;;;;;0.00;0.00;;;;;;;21.54;51.25;100768.88;5076939;28;20119;-78
2023/06/28 07:23:30;;;;;;;0.10;0.10;;;;;;;21.60;50.85;100770.72;5077964;28;20066;-78
2023/06/28 07:25:56;;;;;;;0.00;0.00;;;;;;;21.79;51.07;100777.81;5076922;28;20037;-78
2023/06/28 07:28:21;;;;;;;0.10;0.10;;;;;;;21.81;49.89;100772.22;5077201;28;20089;-78
2023/06/28 07:30:53;;;;;;;0.10;0.10;;;;;;;21.90;49.44;100776.25;5076108;28;20402;-77
2023/06/28 07:33:19;;;;;;;0.00;0.00;;;;;;;22.02;49.22;100779.03;5075586;28;20090;-77
2023/06/28 07:35:44;;;;;;;0.10;0.10;;;;;;;22.17;49.26;100771.44;5078205;28;20033;-78
2023/06/28 07:38:09;;;;;;;0.10;0.10;;;;;;;22.11;48.47;100772.31;5077308;28;20037;-80
2023/06/28 07:40:34;;;;;;;0.00;0.00;;;;;;;22.19;49.13;100768.53;5079120;28;20354;-77
2023/06/28 07:43:02;;;;;;;0.00;0.00;;;;;;;22.42;48.87;100779.50;5078906;28;20024;-78
2023/06/28 07:45:28;;;;;;;0.10;0.10;;;;;;;22.59;48.34;100779.72;5076210;28;20037;-79
2023/06/28 07:47:53;;;;;;;0.10;0.10;;;;;;;22.68;47.18;100770.28;5077353;28;20025;-78
2023/06/28 07:50:20;;;;;;;0.10;0.10;;;;;;;22.73;46.20;100771.50;5074493;28;20060;-78
2023/06/28 07:52:46;;;;;;;0.08;0.08;;;;;;;22.80;46.07;100770.34;5074498;28;20044;-78
2023/06/28 07:55:11;;;;;;;0.00;0.00;;;;;;;22.75;45.64;100769.41;5073512;28;20107;-77
2023/06/28 07:57:36;;;;;;;0.00;0.00;;;;;;;22.84;45.64;100765.34;5077480;28;20373;-78
2023/06/28 08:00:04;;;;;;;0.00;0.00;;;;;;;22.98;46.75;100766.84;5072784;28;20052;-78
2023/06/28 08:02:29;;;;;;;0.00;0.00;;;;;;;23.01;46.18;100770.97;5073764;28;20033;-77
2023/06/28 08:04:54;;;;;;;0.00;0.00;;;;;;;22.89;46.40;100774.38;5078771;28;20054;-77
2023/06/28 08:07:20;;;;;;;0.10;0.10;;;;;;;22.76;45.84;100776.41;5075232;28;20289;-78
2023/06/28 08:09:45;;;;;;;0.00;0.00;;;;;;;22.90;46.16;100776.03;5074491;28;20029;-77
2023/06/28 08:12:10;;;;;;;0.03;0.03;;;;;;;22.81;45.82;100772.00;5073319;28;20063;-79
2023/06/28 08:14:36;;;;;;;0.00;0.00;;;;;;;22.91;45.75;100768.78;5070405;28;20490;-78
2023/06/28 08:17:02;;;;;;;0.10;0.10;;;;;;;22.87;45.95;100768.41;5072791;28;20032;-78
2023/06/28 08:19:27;;;;;;;0.00;0.00;;;;;;;23.12;46.01;100770.19;5078674;28;20035;-78
2023/06/28 08:21:53;;;;;;;0.00;0.00;;;;;;;23.17;44.70;100764.94;5078709;28;20044;-79
2023/06/28 08:24:18;;;;;;;0.00;0.00;;;;;;;23.36;44.71;100762.16;5073331;28;20182;-78
2023/06/28 08:26:45;;;;;;;0.00;0.00;;;;;;;23.79;44.85;100761.06;5075920;28;20032;-78
2023/06/28 08:29:11;;;;;;;0.10;0.10;;;;;;;24.07;43.58;100757.69;5074341;28;20519;-77
2023/06/28 08:31:37;;;;;;;0.00;0.00;;;;;;;24.40;43.66;100765.16;5076728;28;20032;-77
2023/06/28 08:34:03;;;;;;;0.00;0.00;;;;;;;24.69;43.17;100763.38;5075331;28;20032;-76
2023/06/28 08:36:29;;;;;;;0.00;0.00;;;;;;;25.02;42.75;100754.53;5077675;28;20032;-78
2023/06/28 08:38:54;;;;;;;0.03;0.03;;;;;;;25.28;41.97;100751.53;5073077;28;20040;-79
2023/06/28 08:41:21;;;;;;;0.00;0.00;;;;;;;25.40;38.61;100754.97;5077041;28;20418;-78
2023/06/28 08:43:50;;;;;;;0.00;0.00;;;;;;;25.27;39.98;100749.91;5081830;28;20062;-78
2023/06/28 08:46:17;;;;;;;0.00;0.00;;;;;;;25.60;41.20;100755.31;5079302;28;20588;-80
2023/06/28 08:48:44;;;;;;;0.00;0.00;;;;;;;26.01;40.65;100760.59;5078096;28;20032;-80
2023/06/28 08:51:09;;;;;;;0.00;0.00;;;;;;;26.00;39.57;100762.44;5080653;28;20059;-79
2023/06/28 08:53:36;;;;;;;0.00;0.00;;;;;;;26.02;39.69;100764.94;5066584;28;20044;-79
2023/06/28 08:56:03;;;;;;;0.00;0.00;;;;;;;25.96;40.51;100764.03;5073506;28;20071;-77
2023/06/28 08:58:30;;;;;;;0.00;0.00;;;;;;;26.08;40.30;100760.38;5071972;28;20037;-79
2023/06/28 09:00:58;;;;;;;0.00;0.00;;;;;;;25.46;38.45;100756.72;5065187;28;20445;-77
2023/06/28 09:03:25;;;;;;;0.00;0.00;;;;;;;25.91;39.40;100765.84;5060146;28;20112;-77
2023/06/28 09:05:51;;;;;;;0.00;0.00;;;;;;;26.24;40.16;100765.81;5058063;28;20063;-77
2023/06/28 09:08:18;;;;;;;0.00;0.00;;;;;;;25.99;38.71;100762.72;5052648;28;20051;-78
2023/06/28 09:10:45;;;;;;;0.00;0.00;;;;;;;26.17;39.05;100764.31;5061241;28;20064;-77
2023/06/28 09:13:19;;;;;;;0.00;0.00;;;;;;;26.53;38.79;100764.78;5065369;28;20039;-77
2023/06/28 09:15:44;;;;;;;0.00;0.00;;;;;;;27.41;35.96;100768.25;5056501;28;20036;-77
2023/06/28 09:18:09;;;;;;;0.00;0.00;;;;;;;28.73;35.34;100758.50;5068987;28;20040;-78
2023/06/28 09:20:35;;;;;;;0.00;0.00;;;;;;;30.22;34.49;100672.09;5066973;28;20028;-79
2023/06/28 09:23:01;;;;;;;;;;;;;;;31.54;32.35;100675.06;5061404;28;20028;-77
2023/06/28 09:25:27;;;;;;;0.00;0.00;;;;;;;32.93;29.43;100764.56;5067618;28;20493;-78
2023/06/28 09:27:56;;;;;;;0.00;0.00;;;;;;;33.45;28.75;100759.94;5066630;28;20279;-78
2023/06/28 09:30:22;;;;;;;0.00;0.00;;;;;;;33.16;27.62;100760.94;5063157;28;20045;-78
2023/06/28 09:32:51;;;;;;;;;;;;;;;32.97;28.66;100749.97;5068463;28;20619;-78
2023/06/28 09:35:20;;;;;;;0.00;0.00;;;;;;;33.52;27.38;100752.13;5069657;28;19927;-78
2023/06/28 09:37:48;;;;;;;0.00;0.00;;;;;;;33.83;25.59;100752.44;5070913;28;20029;-78
2023/06/28 09:40:17;;;;;;;0.00;0.00;;;;;;;33.79;25.09;100750.59;5058331;28;20103;-79
2023/06/28 09:42:47;;;;;;;0.00;0.00;;;;;;;34.28;24.56;100746.38;5062870;28;20074;-78
2023/06/28 09:45:30;;;;;;;0.00;0.00;;;;;;;35.08;24.13;100749.56;5071729;28;20031;-80
2023/06/28 09:48:00;;;;;;;0.00;0.00;;;;;;;35.34;24.54;100659.06;5073295;28;20027;-79
2023/06/28 09:50:46;;;;;;;0.00;0.00;;;;;;;35.22;22.46;100744.06;5051642;28;20101;-80
2023/06/28 09:53:21;;;;;;;0.00;0.00;;;;;;;35.04;22.14;100740.31;5039476;28;20308;-79
2023/06/28 09:55:49;;;;;;;0.00;0.00;;;;;;;34.34;22.72;100734.16;5049834;28;20095;-79
2023/06/28 09:58:17;;;;;;;0.00;0.00;;;;;;;34.05;22.62;100734.47;5048340;28;20041;-80
2023/06/28 10:00:44;;;;;;;0.00;0.00;;;;;;;33.90;23.63;100732.03;5070900;28;20090;-79
2023/06/28 10:03:12;;;;;;;0.00;0.00;;;;;;;34.04;24.06;100735.59;5068921;28;20032;-78
2023/06/28 10:05:39;;;;;;;0.00;0.00;;;;;;;34.61;23.90;100730.59;5063297;28;20029;-80
2023/06/28 10:08:08;;;;;;;0.00;0.00;;;;;;;34.46;24.22;100728.94;5055177;28;20033;-80
2023/06/28 10:10:35;;;;;;;0.00;0.00;;;;;;;34.13;24.89;100732.97;5054046;28;21517;-79
2023/06/28 10:13:02;;;;;;;0.00;0.00;;;;;;;33.70;24.78;100735.94;5056859;28;20155;-79
2023/06/28 10:15:34;;;;;;;0.00;0.00;;;;;;;33.46;24.93;100739.63;5059738;28;20048;-79
2023/06/28 10:18:00;;;;;;;0.00;0.00;;;;;;;33.68;24.73;100735.44;5071925;28;20028;-80
2023/06/28 10:20:25;;;;;;;0.00;0.00;;;;;;;34.00;24.26;100727.13;5070742;28;20394;-78
2023/06/28 10:22:51;;;;;;;0.00;0.00;;;;;;;34.09;23.39;100723.72;5074823;28;20028;-78
2023/06/28 10:25:18;;;;;;;0.00;0.00;;;;;;;33.67;23.72;100722.84;5073731;28;20486;-79
2023/06/28 10:27:44;;;;;;;0.00;0.00;;;;;;;32.98;24.84;100726.94;5075504;28;20039;-78
2023/06/28 10:30:10;;;;;;;0.00;0.00;;;;;;;33.01;25.51;100728.25;5073637;28;20033;-79
2023/06/28 10:32:36;;;;;;;0.00;0.00;;;;;;;33.49;24.74;100725.31;5071901;28;20285;-78
2023/06/28 10:35:02;;;;;;;0.00;0.00;;;;;;;33.21;24.17;100736.19;5074871;28;20032;-78
2023/06/28 10:37:28;;;;;;;0.00;0.00;;;;;;;32.90;24.35;100721.31;5075304;28;20036;-78
2023/06/28 10:39:53;;;;;;;0.00;0.00;;;;;;;34.11;23.33;100724.22;5074313;28;20040;-78
2023/06/28 10:42:20;;;;;;;0.00;0.00;;;;;;;35.40;21.94;100728.50;5075036;28;20032;-80
2023/06/28 10:44:56;;;;;;;0.00;0.00;;;;;;;35.21;21.34;100731.44;5072335;28;20397;-78
2023/06/28 10:47:22;;;;;;;0.00;0.00;;;;;;;35.39;21.30;100729.59;5070125;28;20044;-80
2023/06/28 10:50:11;;;;;;;0.00;0.00;;;;;;;34.20;22.33;100720.44;5076895;28;20028;-78
2023/06/28 10:52:47;;;;;;;0.00;0.00;;;;;;;32.48;24.94;100729.25;5068456;28;20463;-79
2023/06/28 10:55:19;;;;;;;0.00;0.00;;;;;;;31.32;25.92;100716.47;5079162;28;20031;-78
2023/06/28 10:57:45;;;;;;;0.00;0.00;;;;;;;30.78;26.91;100717.41;5077170;28;20051;-79
2023/06/28 11:00:36;;;;;;;0.00;0.00;;;;;;;31.92;26.54;100708.84;5074580;28;20025;-80
2023/06/28 11:03:06;;;;;;;0.00;0.00;;;;;;;31.24;25.78;100711.66;5071378;28;20063;-78
2023/06/28 11:05:40;;;;;;;0.00;0.00;;;;;;;31.15;26.85;100722.34;5076246;28;20090;-79
2023/06/28 11:08:17;;;;;;;0.00;0.00;;;;;;;31.78;26.06;100712.56;5075041;28;20072;-78
2023/06/28 11:10:45;;;;;;;0.00;0.00;;;;;;;32.48;24.39;100710.09;5073718;28;20397;-79
2023/06/28 11:13:30;;;;;;;0.00;0.00;;;;;;;32.07;27.21;100707.06;5073761;28;20518;-79
2023/06/28 11:16:08;;;;;;;0.00;0.00;;;;;;;30.81;27.23;100719.56;5071929;28;20032;-79
2023/06/28 11:18:33;;;;;;;0.00;0.00;;;;;;;29.26;29.59;100699.25;5070317;28;20443;-78
2023/06/28 11:20:59;;;;;;;0.00;0.00;;;;;;;29.08;30.50;100708.81;5069931;28;20040;-79
2023/06/28 11:23:29;;;;;;;0.00;0.00;;;;;;;29.57;29.81;100707.41;5068576;28;20458;-79